sensor_id;sensor_type;location;lat;lon;timestamp;temperature;humidity
68235;DHT22;55052;52.056;5.296;2023-06-14T00:01:39;21.50;38.40
68235;DHT22;55052;52.056;5.296;2023-06-14T00:04:05;21.40;38.40
68235;DHT22;55052;52.056;5.296;2023-06-14T00:06:35;21.40;38.50
68235;DHT22;55052;52.056;5.296;2023-06-14T00:09:02;21.40;38.60
68235;DHT22;55052;52.056;5.296;2023-06-14T00:11:29;21.40;38.70
68235;DHT22;55052;52.056;5.296;2023-06-14T00:13:57;21.30;38.80
68235;DHT22;55052;52.056;5.296;2023-06-14T00:16:24;21.30;38.90
68235;DHT22;55052;52.056;5.296;2023-06-14T00:18:51;21.30;39.00
68235;DHT22;55052;52.056;5.296;2023-06-14T00:21:21;21.20;39.00
68235;DHT22;55052;52.056;5.296;2023-06-14T00:23:48;21.20;39.20
68235;DHT22;55052;52.056;5.296;2023-06-14T00:26:15;21.20;39.40
68235;DHT22;55052;52.056;5.296;2023-06-14T00:28:42;21.10;39.50
68235;DHT22;55052;52.056;5.296;2023-06-14T00:31:09;21.10;39.60
68235;DHT22;55052;52.056;5.296;2023-06-14T00:33:36;21.10;39.70
68235;DHT22;55052;52.056;5.296;2023-06-14T00:36:03;21.00;39.90
68235;DHT22;55052;52.056;5.296;2023-06-14T00:38:30;21.00;40.00
68235;DHT22;55052;52.056;5.296;2023-06-14T00:40:56;20.90;40.20
68235;DHT22;55052;52.056;5.296;2023-06-14T00:43:23;20.90;40.10
68235;DHT22;55052;52.056;5.296;2023-06-14T00:45:50;20.90;40.30
68235;DHT22;55052;52.056;5.296;2023-06-14T00:48:18;20.80;40.50
68235;DHT22;55052;52.056;5.296;2023-06-14T00:50:45;20.80;41.60
68235;DHT22;55052;52.056;5.296;2023-06-14T00:53:16;20.80;40.60
68235;DHT22;55052;52.056;5.296;2023-06-14T00:55:44;20.70;40.70
68235;DHT22;55052;52.056;5.296;2023-06-14T00:58:11;20.70;40.80
68235;DHT22;55052;52.056;5.296;2023-06-14T01:00:38;20.70;40.90
68235;DHT22;55052;52.056;5.296;2023-06-14T01:03:05;20.70;40.90
68235;DHT22;55052;52.056;5.296;2023-06-14T01:05:32;20.60;41.10
68235;DHT22;55052;52.056;5.296;2023-06-14T01:08:11;20.60;41.10
68235;DHT22;55052;52.056;5.296;2023-06-14T01:10:51;20.60;41.20
68235;DHT22;55052;52.056;5.296;2023-06-14T01:13:38;20.60;41.20
68235;DHT22;55052;52.056;5.296;2023-06-14T01:16:06;20.60;41.30
68235;DHT22;55052;52.056;5.296;2023-06-14T01:18:34;20.50;41.20
68235;DHT22;55052;52.056;5.296;2023-06-14T01:21:02;20.50;41.40
68235;DHT22;55052;52.056;5.296;2023-06-14T01:23:32;20.50;41.40
68235;DHT22;55052;52.056;5.296;2023-06-14T01:26:00;20.50;41.50
68235;DHT22;55052;52.056;5.296;2023-06-14T01:28:31;20.40;41.40
68235;DHT22;55052;52.056;5.296;2023-06-14T01:31:01;20.40;41.70
68235;DHT22;55052;52.056;5.296;2023-06-14T01:33:32;20.40;41.80
68235;DHT22;55052;52.056;5.296;2023-06-14T01:36:01;20.40;41.70
68235;DHT22;55052;52.056;5.296;2023-06-14T01:38:30;20.30;41.70
68235;DHT22;55052;52.056;5.296;2023-06-14T01:40:58;20.30;41.90
68235;DHT22;55052;52.056;5.296;2023-06-14T01:43:26;20.30;42.00
68235;DHT22;55052;52.056;5.296;2023-06-14T01:45:55;20.30;42.10
68235;DHT22;55052;52.056;5.296;2023-06-14T01:48:23;20.30;42.30
68235;DHT22;55052;52.056;5.296;2023-06-14T01:50:50;20.20;42.30
68235;DHT22;55052;52.056;5.296;2023-06-14T01:53:18;20.20;42.50
68235;DHT22;55052;52.056;5.296;2023-06-14T01:55:45;20.20;42.40
68235;DHT22;55052;52.056;5.296;2023-06-14T01:58:15;20.20;43.30
68235;DHT22;55052;52.056;5.296;2023-06-14T02:00:43;20.20;42.30
68235;DHT22;55052;52.056;5.296;2023-06-14T02:03:11;20.10;42.60
68235;DHT22;55052;52.056;5.296;2023-06-14T02:05:38;20.10;42.70
68235;DHT22;55052;52.056;5.296;2023-06-14T02:08:06;20.10;42.60
68235;DHT22;55052;52.056;5.296;2023-06-14T02:10:34;20.00;42.60
68235;DHT22;55052;52.056;5.296;2023-06-14T02:13:02;20.00;42.80
68235;DHT22;55052;52.056;5.296;2023-06-14T02:15:29;20.00;43.00
68235;DHT22;55052;52.056;5.296;2023-06-14T02:18:01;20.00;43.00
68235;DHT22;55052;52.056;5.296;2023-06-14T02:20:29;19.90;42.90
68235;DHT22;55052;52.056;5.296;2023-06-14T02:22:57;19.90;42.90
68235;DHT22;55052;52.056;5.296;2023-06-14T02:25:24;19.90;43.10
68235;DHT22;55052;52.056;5.296;2023-06-14T02:27:51;19.80;43.20
68235;DHT22;55052;52.056;5.296;2023-06-14T02:30:18;19.80;43.20
68235;DHT22;55052;52.056;5.296;2023-06-14T02:32:44;19.80;43.20
68235;DHT22;55052;52.056;5.296;2023-06-14T02:35:11;19.80;43.50
68235;DHT22;55052;52.056;5.296;2023-06-14T02:37:39;19.70;43.40
68235;DHT22;55052;52.056;5.296;2023-06-14T02:40:07;19.70;43.40
68235;DHT22;55052;52.056;5.296;2023-06-14T02:42:35;19.70;43.50
68235;DHT22;55052;52.056;5.296;2023-06-14T02:45:02;19.70;43.50
68235;DHT22;55052;52.056;5.296;2023-06-14T02:47:30;19.60;43.50
68235;DHT22;55052;52.056;5.296;2023-06-14T02:49:57;19.60;43.50
68235;DHT22;55052;52.056;5.296;2023-06-14T02:52:24;19.60;43.60
68235;DHT22;55052;52.056;5.296;2023-06-14T02:54:51;19.60;43.80
68235;DHT22;55052;52.056;5.296;2023-06-14T02:57:18;19.50;44.00
68235;DHT22;55052;52.056;5.296;2023-06-14T02:59:45;19.50;44.00
68235;DHT22;55052;52.056;5.296;2023-06-14T03:02:12;19.50;44.10
68235;DHT22;55052;52.056;5.296;2023-06-14T03:04:38;19.40;44.20
68235;DHT22;55052;52.056;5.296;2023-06-14T03:07:06;19.40;44.20
68235;DHT22;55052;52.056;5.296;2023-06-14T03:09:36;19.40;44.20
68235;DHT22;55052;52.056;5.296;2023-06-14T03:12:07;19.40;44.40
68235;DHT22;55052;52.056;5.296;2023-06-14T03:14:34;19.30;44.40
68235;DHT22;55052;52.056;5.296;2023-06-14T03:17:04;19.30;44.50
68235;DHT22;55052;52.056;5.296;2023-06-14T03:19:31;19.20;44.60
68235;DHT22;55052;52.056;5.296;2023-06-14T03:21:58;19.20;44.60
68235;DHT22;55052;52.056;5.296;2023-06-14T03:24:25;19.20;44.80
68235;DHT22;55052;52.056;5.296;2023-06-14T03:26:55;19.10;44.90
68235;DHT22;55052;52.056;5.296;2023-06-14T03:29:23;19.10;44.80
68235;DHT22;55052;52.056;5.296;2023-06-14T03:32:01;19.10;45.00
68235;DHT22;55052;52.056;5.296;2023-06-14T03:34:28;19.10;45.10
68235;DHT22;55052;52.056;5.296;2023-06-14T03:36:55;19.00;45.00
68235;DHT22;55052;52.056;5.296;2023-06-14T03:39:22;19.00;45.10
68235;DHT22;55052;52.056;5.296;2023-06-14T03:41:49;19.00;45.20
68235;DHT22;55052;52.056;5.296;2023-06-14T03:44:17;18.90;45.20
68235;DHT22;55052;52.056;5.296;2023-06-14T03:46:47;18.90;45.20
68235;DHT22;55052;52.056;5.296;2023-06-14T03:49:14;18.90;45.30
68235;DHT22;55052;52.056;5.296;2023-06-14T03:51:43;18.90;46.40
68235;DHT22;55052;52.056;5.296;2023-06-14T03:54:10;18.90;45.50
68235;DHT22;55052;52.056;5.296;2023-06-14T03:56:57;18.90;45.60
68235;DHT22;55052;52.056;5.296;2023-06-14T03:59:24;18.80;45.70
68235;DHT22;55052;52.056;5.296;2023-06-14T04:01:53;18.80;45.80
68235;DHT22;55052;52.056;5.296;2023-06-14T04:04:20;18.80;45.70
68235;DHT22;55052;52.056;5.296;2023-06-14T04:06:47;18.80;45.80
68235;DHT22;55052;52.056;5.296;2023-06-14T04:09:15;18.80;46.80
68235;DHT22;55052;52.056;5.296;2023-06-14T04:11:42;18.80;46.00
68235;DHT22;55052;52.056;5.296;2023-06-14T04:14:08;18.80;46.00
68235;DHT22;55052;52.056;5.296;2023-06-14T04:16:35;18.80;46.10
68235;DHT22;55052;52.056;5.296;2023-06-14T04:19:02;18.80;46.20
68235;DHT22;55052;52.056;5.296;2023-06-14T04:21:29;18.80;46.30
68235;DHT22;55052;52.056;5.296;2023-06-14T04:23:56;18.80;46.30
68235;DHT22;55052;52.056;5.296;2023-06-14T04:26:23;18.80;46.40
68235;DHT22;55052;52.056;5.296;2023-06-14T04:28:56;18.80;46.60
68235;DHT22;55052;52.056;5.296;2023-06-14T04:31:29;18.80;46.50
68235;DHT22;55052;52.056;5.296;2023-06-14T04:33:56;18.80;46.60
68235;DHT22;55052;52.056;5.296;2023-06-14T04:36:23;18.80;46.70
68235;DHT22;55052;52.056;5.296;2023-06-14T04:38:51;18.80;46.80
68235;DHT22;55052;52.056;5.296;2023-06-14T04:41:21;18.80;46.80
68235;DHT22;55052;52.056;5.296;2023-06-14T04:43:49;18.80;47.90
68235;DHT22;55052;52.056;5.296;2023-06-14T04:46:16;18.80;47.00
68235;DHT22;55052;52.056;5.296;2023-06-14T04:48:43;18.80;47.00
68235;DHT22;55052;52.056;5.296;2023-06-14T04:51:12;18.80;47.10
68235;DHT22;55052;52.056;5.296;2023-06-14T04:53:39;18.90;47.20
68235;DHT22;55052;52.056;5.296;2023-06-14T04:56:06;18.90;47.10
68235;DHT22;55052;52.056;5.296;2023-06-14T04:58:33;18.90;48.30
68235;DHT22;55052;52.056;5.296;2023-06-14T05:01:00;18.90;47.10
68235;DHT22;55052;52.056;5.296;2023-06-14T05:03:28;19.00;47.30
68235;DHT22;55052;52.056;5.296;2023-06-14T05:05:57;19.00;47.40
68235;DHT22;55052;52.056;5.296;2023-06-14T05:08:24;19.00;47.50
68235;DHT22;55052;52.056;5.296;2023-06-14T05:10:51;19.00;47.40
68235;DHT22;55052;52.056;5.296;2023-06-14T05:13:18;19.00;47.40
68235;DHT22;55052;52.056;5.296;2023-06-14T05:15:45;19.10;47.50
68235;DHT22;55052;52.056;5.296;2023-06-14T05:18:12;19.10;47.50
68235;DHT22;55052;52.056;5.296;2023-06-14T05:20:40;19.10;47.50
68235;DHT22;55052;52.056;5.296;2023-06-14T05:23:09;19.10;47.50
68235;DHT22;55052;52.056;5.296;2023-06-14T05:25:45;19.10;47.60
68235;DHT22;55052;52.056;5.296;2023-06-14T05:28:13;19.10;47.80
68235;DHT22;55052;52.056;5.296;2023-06-14T05:30:40;19.20;48.00
68235;DHT22;55052;52.056;5.296;2023-06-14T05:33:07;19.20;48.00
68235;DHT22;55052;52.056;5.296;2023-06-14T05:35:34;19.20;48.00
68235;DHT22;55052;52.056;5.296;2023-06-14T05:38:01;19.20;47.90
68235;DHT22;55052;52.056;5.296;2023-06-14T05:40:28;19.20;48.10
68235;DHT22;55052;52.056;5.296;2023-06-14T05:42:55;19.30;48.00
68235;DHT22;55052;52.056;5.296;2023-06-14T05:45:22;19.30;48.10
68235;DHT22;55052;52.056;5.296;2023-06-14T05:47:48;19.30;48.10
68235;DHT22;55052;52.056;5.296;2023-06-14T05:50:17;19.40;48.20
68235;DHT22;55052;52.056;5.296;2023-06-14T05:52:44;19.40;48.20
68235;DHT22;55052;52.056;5.296;2023-06-14T05:55:10;19.40;48.30
68235;DHT22;55052;52.056;5.296;2023-06-14T05:57:40;19.50;48.30
68235;DHT22;55052;52.056;5.296;2023-06-14T06:00:08;19.50;48.50
68235;DHT22;55052;52.056;5.296;2023-06-14T06:02:38;19.60;48.50
68235;DHT22;55052;52.056;5.296;2023-06-14T06:05:05;19.70;48.50
68235;DHT22;55052;52.056;5.296;2023-06-14T06:07:32;19.70;48.30
68235;DHT22;55052;52.056;5.296;2023-06-14T06:10:03;19.80;48.30
68235;DHT22;55052;52.056;5.296;2023-06-14T06:12:30;19.90;48.30
68235;DHT22;55052;52.056;5.296;2023-06-14T06:14:57;19.90;48.10
68235;DHT22;55052;52.056;5.296;2023-06-14T06:17:25;20.00;48.00
68235;DHT22;55052;52.056;5.296;2023-06-14T06:19:56;20.10;48.00
68235;DHT22;55052;52.056;5.296;2023-06-14T06:22:23;20.10;47.70
68235;DHT22;55052;52.056;5.296;2023-06-14T06:24:51;20.20;48.10
68235;DHT22;55052;52.056;5.296;2023-06-14T06:27:17;20.30;47.60
68235;DHT22;55052;52.056;5.296;2023-06-14T06:29:45;20.30;47.50
68235;DHT22;55052;52.056;5.296;2023-06-14T06:32:12;20.40;47.30
68235;DHT22;55052;52.056;5.296;2023-06-14T06:34:39;20.50;47.20
68235;DHT22;55052;52.056;5.296;2023-06-14T06:37:06;20.60;47.00
68235;DHT22;55052;52.056;5.296;2023-06-14T06:39:34;20.60;46.70
68235;DHT22;55052;52.056;5.296;2023-06-14T06:42:01;20.70;46.50
68235;DHT22;55052;52.056;5.296;2023-06-14T06:44:28;20.80;46.30
68235;DHT22;55052;52.056;5.296;2023-06-14T06:46:55;20.80;46.20
68235;DHT22;55052;52.056;5.296;2023-06-14T06:49:22;20.90;46.10
68235;DHT22;55052;52.056;5.296;2023-06-14T06:52:05;21.00;46.90
68235;DHT22;55052;52.056;5.296;2023-06-14T06:54:33;21.10;46.00
68235;DHT22;55052;52.056;5.296;2023-06-14T06:57:00;21.10;45.90
68235;DHT22;55052;52.056;5.296;2023-06-14T06:59:28;21.20;45.60
68235;DHT22;55052;52.056;5.296;2023-06-14T07:01:55;21.30;45.10
68235;DHT22;55052;52.056;5.296;2023-06-14T07:04:22;21.40;46.10
68235;DHT22;55052;52.056;5.296;2023-06-14T07:06:48;21.50;44.60
68235;DHT22;55052;52.056;5.296;2023-06-14T07:09:16;21.60;44.20
68235;DHT22;55052;52.056;5.296;2023-06-14T07:11:43;21.70;43.80
68235;DHT22;55052;52.056;5.296;2023-06-14T07:14:11;21.70;43.40
68235;DHT22;55052;52.056;5.296;2023-06-14T07:16:38;21.80;43.20
68235;DHT22;55052;52.056;5.296;2023-06-14T07:19:05;21.90;42.90
68235;DHT22;55052;52.056;5.296;2023-06-14T07:21:32;21.90;42.70
68235;DHT22;55052;52.056;5.296;2023-06-14T07:23:59;22.00;43.70
68235;DHT22;55052;52.056;5.296;2023-06-14T07:26:26;22.10;42.40
68235;DHT22;55052;52.056;5.296;2023-06-14T07:28:52;22.20;42.40
68235;DHT22;55052;52.056;5.296;2023-06-14T07:31:19;22.30;42.10
68235;DHT22;55052;52.056;5.296;2023-06-14T07:33:46;22.30;41.80
68235;DHT22;55052;52.056;5.296;2023-06-14T07:36:13;22.40;41.80
68235;DHT22;55052;52.056;5.296;2023-06-14T07:38:40;22.50;41.80
68235;DHT22;55052;52.056;5.296;2023-06-14T07:41:08;22.60;41.70
68235;DHT22;55052;52.056;5.296;2023-06-14T07:43:34;22.70;41.50
68235;DHT22;55052;52.056;5.296;2023-06-14T07:46:01;22.80;41.20
68235;DHT22;55052;52.056;5.296;2023-06-14T07:48:34;22.90;41.00
68235;DHT22;55052;52.056;5.296;2023-06-14T07:51:01;22.90;40.80
68235;DHT22;55052;52.056;5.296;2023-06-14T07:53:28;23.00;40.30
68235;DHT22;55052;52.056;5.296;2023-06-14T07:55:57;23.10;40.10
68235;DHT22;55052;52.056;5.296;2023-06-14T07:58:24;23.20;40.00
68235;DHT22;55052;52.056;5.296;2023-06-14T08:00:51;23.20;39.80
68235;DHT22;55052;52.056;5.296;2023-06-14T08:03:18;23.30;39.60
68235;DHT22;55052;52.056;5.296;2023-06-14T08:05:45;23.40;39.50
68235;DHT22;55052;52.056;5.296;2023-06-14T08:08:12;23.50;39.40
68235;DHT22;55052;52.056;5.296;2023-06-14T08:10:39;23.60;39.40
68235;DHT22;55052;52.056;5.296;2023-06-14T08:13:06;23.60;38.70
68235;DHT22;55052;52.056;5.296;2023-06-14T08:15:33;23.70;38.70
68235;DHT22;55052;52.056;5.296;2023-06-14T08:18:00;23.80;38.30
68235;DHT22;55052;52.056;5.296;2023-06-14T08:20:28;23.90;38.00
68235;DHT22;55052;52.056;5.296;2023-06-14T08:22:57;23.90;37.40
68235;DHT22;55052;52.056;5.296;2023-06-14T08:25:24;24.00;37.00
68235;DHT22;55052;52.056;5.296;2023-06-14T08:27:52;24.10;36.80
68235;DHT22;55052;52.056;5.296;2023-06-14T08:30:19;24.10;36.30
68235;DHT22;55052;52.056;5.296;2023-06-14T08:32:46;24.20;36.10
68235;DHT22;55052;52.056;5.296;2023-06-14T08:35:22;24.20;35.90
68235;DHT22;55052;52.056;5.296;2023-06-14T08:37:49;24.30;35.30
68235;DHT22;55052;52.056;5.296;2023-06-14T08:40:23;24.30;35.10
68235;DHT22;55052;52.056;5.296;2023-06-14T08:42:52;24.40;34.90
68235;DHT22;55052;52.056;5.296;2023-06-14T08:45:20;24.50;35.00
68235;DHT22;55052;52.056;5.296;2023-06-14T08:47:51;24.50;34.80
68235;DHT22;55052;52.056;5.296;2023-06-14T08:50:22;24.60;35.00
68235;DHT22;55052;52.056;5.296;2023-06-14T08:52:56;24.80;34.50
68235;DHT22;55052;52.056;5.296;2023-06-14T08:55:24;24.80;34.30
68235;DHT22;55052;52.056;5.296;2023-06-14T08:57:54;24.90;33.90
68235;DHT22;55052;52.056;5.296;2023-06-14T09:00:22;25.00;33.40
68235;DHT22;55052;52.056;5.296;2023-06-14T09:02:51;25.00;33.20
68235;DHT22;55052;52.056;5.296;2023-06-14T09:05:27;25.10;32.80
68235;DHT22;55052;52.056;5.296;2023-06-14T09:07:54;25.20;32.40
68235;DHT22;55052;52.056;5.296;2023-06-14T09:10:23;25.20;32.20
68235;DHT22;55052;52.056;5.296;2023-06-14T09:12:51;25.30;31.90
68235;DHT22;55052;52.056;5.296;2023-06-14T09:15:18;25.30;31.90
68235;DHT22;55052;52.056;5.296;2023-06-14T09:17:44;25.40;32.00
68235;DHT22;55052;52.056;5.296;2023-06-14T09:20:12;25.50;32.00
68235;DHT22;55052;52.056;5.296;2023-06-14T09:22:46;25.50;31.80
68235;DHT22;55052;52.056;5.296;2023-06-14T09:25:13;25.50;32.00
68235;DHT22;55052;52.056;5.296;2023-06-14T09:28:02;25.60;32.10
68235;DHT22;55052;52.056;5.296;2023-06-14T09:30:28;25.70;32.20
68235;DHT22;55052;52.056;5.296;2023-06-14T09:32:55;25.80;32.10
68235;DHT22;55052;52.056;5.296;2023-06-14T09:35:26;25.90;32.90
68235;DHT22;55052;52.056;5.296;2023-06-14T09:37:56;26.00;31.40
68235;DHT22;55052;52.056;5.296;2023-06-14T09:40:23;26.00;31.00
68235;DHT22;55052;52.056;5.296;2023-06-14T09:42:51;26.10;31.00
68235;DHT22;55052;52.056;5.296;2023-06-14T09:45:19;26.10;31.00
68235;DHT22;55052;52.056;5.296;2023-06-14T09:47:51;26.10;30.90
68235;DHT22;55052;52.056;5.296;2023-06-14T09:50:33;26.20;30.80
68235;DHT22;55052;52.056;5.296;2023-06-14T09:53:06;26.20;30.70
68235;DHT22;55052;52.056;5.296;2023-06-14T09:55:37;26.30;30.40
68235;DHT22;55052;52.056;5.296;2023-06-14T09:58:06;26.30;30.70
68235;DHT22;55052;52.056;5.296;2023-06-14T10:00:35;26.40;30.00
68235;DHT22;55052;52.056;5.296;2023-06-14T10:03:13;26.40;29.80
68235;DHT22;55052;52.056;5.296;2023-06-14T10:05:45;26.50;29.70
68235;DHT22;55052;52.056;5.296;2023-06-14T10:08:15;26.50;29.50
68235;DHT22;55052;52.056;5.296;2023-06-14T10:10:43;26.50;29.50
68235;DHT22;55052;52.056;5.296;2023-06-14T10:13:12;26.50;29.30
68235;DHT22;55052;52.056;5.296;2023-06-14T10:15:58;26.50;29.30
68235;DHT22;55052;52.056;5.296;2023-06-14T10:19:02;26.60;29.10
68235;DHT22;55052;52.056;5.296;2023-06-14T10:24:41;26.60;29.40
68235;DHT22;55052;52.056;5.296;2023-06-14T10:27:09;26.60;29.10
68235;DHT22;55052;52.056;5.296;2023-06-14T10:30:01;26.70;29.40
68235;DHT22;55052;52.056;5.296;2023-06-14T10:32:29;26.80;29.10
68235;DHT22;55052;52.056;5.296;2023-06-14T10:35:01;26.80;29.30
68235;DHT22;55052;52.056;5.296;2023-06-14T10:37:30;26.90;29.10
68235;DHT22;55052;52.056;5.296;2023-06-14T10:39:57;27.00;29.10
68235;DHT22;55052;52.056;5.296;2023-06-14T10:42:31;27.00;29.20
68235;DHT22;55052;52.056;5.296;2023-06-14T10:44:59;27.10;29.10
68235;DHT22;55052;52.056;5.296;2023-06-14T10:50:10;27.20;29.10
68235;DHT22;55052;52.056;5.296;2023-06-14T10:52:39;27.20;29.10
68235;DHT22;55052;52.056;5.296;2023-06-14T10:55:15;27.30;29.20
68235;DHT22;55052;52.056;5.296;2023-06-14T10:57:46;27.40;29.00
68235;DHT22;55052;52.056;5.296;2023-06-14T11:00:20;27.40;28.50
68235;DHT22;55052;52.056;5.296;2023-06-14T11:05:54;27.50;28.20
68235;DHT22;55052;52.056;5.296;2023-06-14T11:11:22;27.50;28.50
68235;DHT22;55052;52.056;5.296;2023-06-14T11:13:51;27.60;28.80
68235;DHT22;55052;52.056;5.296;2023-06-14T11:16:19;27.60;28.70
68235;DHT22;55052;52.056;5.296;2023-06-14T11:18:46;27.70;28.70
68235;DHT22;55052;52.056;5.296;2023-06-14T11:21:17;27.80;28.70
68235;DHT22;55052;52.056;5.296;2023-06-14T11:23:51;27.90;28.60
68235;DHT22;55052;52.056;5.296;2023-06-14T11:26:25;27.90;28.50
68235;DHT22;55052;52.056;5.296;2023-06-14T11:28:58;27.90;28.40
68235;DHT22;55052;52.056;5.296;2023-06-14T11:31:27;27.90;28.30
68235;DHT22;55052;52.056;5.296;2023-06-14T11:33:55;27.90;28.40
68235;DHT22;55052;52.056;5.296;2023-06-14T11:36:26;27.90;28.30
68235;DHT22;55052;52.056;5.296;2023-06-14T11:39:02;27.90;28.30
68235;DHT22;55052;52.056;5.296;2023-06-14T11:41:41;27.90;28.30
68235;DHT22;55052;52.056;5.296;2023-06-14T11:44:08;28.00;28.00
68235;DHT22;55052;52.056;5.296;2023-06-14T11:46:35;28.00;27.80
68235;DHT22;55052;52.056;5.296;2023-06-14T11:49:03;28.00;27.80
68235;DHT22;55052;52.056;5.296;2023-06-14T11:51:33;28.10;27.80
68235;DHT22;55052;52.056;5.296;2023-06-14T11:54:04;28.10;28.00
68235;DHT22;55052;52.056;5.296;2023-06-14T11:56:32;28.10;28.00
68235;DHT22;55052;52.056;5.296;2023-06-14T11:58:59;28.10;28.20
68235;DHT22;55052;52.056;5.296;2023-06-14T12:01:27;28.20;28.40
68235;DHT22;55052;52.056;5.296;2023-06-14T12:03:54;28.30;28.50
68235;DHT22;55052;52.056;5.296;2023-06-14T12:06:29;28.40;28.40
68235;DHT22;55052;52.056;5.296;2023-06-14T12:09:03;28.50;28.10
68235;DHT22;55052;52.056;5.296;2023-06-14T12:11:34;28.50;27.90
68235;DHT22;55052;52.056;5.296;2023-06-14T12:14:05;28.60;27.70
68235;DHT22;55052;52.056;5.296;2023-06-14T12:16:34;28.70;27.60
68235;DHT22;55052;52.056;5.296;2023-06-14T12:19:16;28.70;27.50
68235;DHT22;55052;52.056;5.296;2023-06-14T12:21:46;28.80;27.60
68235;DHT22;55052;52.056;5.296;2023-06-14T12:24:16;28.80;27.60
68235;DHT22;55052;52.056;5.296;2023-06-14T12:26:43;28.90;27.50
68235;DHT22;55052;52.056;5.296;2023-06-14T12:29:10;28.90;27.20
68235;DHT22;55052;52.056;5.296;2023-06-14T12:31:39;29.00;27.40
68235;DHT22;55052;52.056;5.296;2023-06-14T12:34:07;29.00;27.60
68235;DHT22;55052;52.056;5.296;2023-06-14T12:36:34;29.10;27.50
68235;DHT22;55052;52.056;5.296;2023-06-14T12:39:02;29.20;27.30
68235;DHT22;55052;52.056;5.296;2023-06-14T12:41:29;29.20;27.20
68235;DHT22;55052;52.056;5.296;2023-06-14T12:43:56;29.20;27.30
68235;DHT22;55052;52.056;5.296;2023-06-14T12:46:24;29.30;27.90
68235;DHT22;55052;52.056;5.296;2023-06-14T12:48:51;29.40;27.20
68235;DHT22;55052;52.056;5.296;2023-06-14T12:51:18;29.50;27.20
68235;DHT22;55052;52.056;5.296;2023-06-14T12:53:44;29.60;26.70
68235;DHT22;55052;52.056;5.296;2023-06-14T12:56:11;29.70;26.40
68235;DHT22;55052;52.056;5.296;2023-06-14T12:58:38;29.80;26.40
68235;DHT22;55052;52.056;5.296;2023-06-14T13:01:05;29.80;26.20
68235;DHT22;55052;52.056;5.296;2023-06-14T13:03:32;30.00;26.20
68235;DHT22;55052;52.056;5.296;2023-06-14T13:06:01;30.10;26.20
68235;DHT22;55052;52.056;5.296;2023-06-14T13:08:28;30.20;26.90
68235;DHT22;55052;52.056;5.296;2023-06-14T13:10:54;30.30;26.00
68235;DHT22;55052;52.056;5.296;2023-06-14T13:13:21;30.40;26.10
68235;DHT22;55052;52.056;5.296;2023-06-14T13:15:48;30.40;25.60
68235;DHT22;55052;52.056;5.296;2023-06-14T13:18:16;30.50;25.70
68235;DHT22;55052;52.056;5.296;2023-06-14T13:20:45;30.60;25.50
68235;DHT22;55052;52.056;5.296;2023-06-14T13:23:12;30.80;25.60
68235;DHT22;55052;52.056;5.296;2023-06-14T13:25:40;30.90;25.40
68235;DHT22;55052;52.056;5.296;2023-06-14T13:28:07;31.00;25.30
68235;DHT22;55052;52.056;5.296;2023-06-14T13:30:34;31.10;25.30
68235;DHT22;55052;52.056;5.296;2023-06-14T13:33:01;31.20;25.10
68235;DHT22;55052;52.056;5.296;2023-06-14T13:35:29;31.30;25.20
68235;DHT22;55052;52.056;5.296;2023-06-14T13:37:55;31.40;25.40
68235;DHT22;55052;52.056;5.296;2023-06-14T13:40:22;31.40;25.60
68235;DHT22;55052;52.056;5.296;2023-06-14T13:42:49;31.50;25.60
68235;DHT22;55052;52.056;5.296;2023-06-14T13:45:16;31.60;25.70
68235;DHT22;55052;52.056;5.296;2023-06-14T13:47:44;31.60;26.50
68235;DHT22;55052;52.056;5.296;2023-06-14T13:50:11;31.60;25.50
68235;DHT22;55052;52.056;5.296;2023-06-14T13:52:39;31.70;25.60
68235;DHT22;55052;52.056;5.296;2023-06-14T13:55:06;31.50;25.10
68235;DHT22;55052;52.056;5.296;2023-06-14T13:57:33;31.50;25.30
68235;DHT22;55052;52.056;5.296;2023-06-14T13:59:59;31.40;25.40
68235;DHT22;55052;52.056;5.296;2023-06-14T14:02:29;31.40;25.60
68235;DHT22;55052;52.056;5.296;2023-06-14T14:04:56;31.30;25.50
68235;DHT22;55052;52.056;5.296;2023-06-14T14:07:24;31.20;25.40
68235;DHT22;55052;52.056;5.296;2023-06-14T14:09:51;31.00;25.30
68235;DHT22;55052;52.056;5.296;2023-06-14T14:12:17;30.90;25.30
68235;DHT22;55052;52.056;5.296;2023-06-14T14:14:44;30.70;26.10
68235;DHT22;55052;52.056;5.296;2023-06-14T14:17:12;30.50;25.50
68235;DHT22;55052;52.056;5.296;2023-06-14T14:19:39;30.40;25.60
68235;DHT22;55052;52.056;5.296;2023-06-14T14:22:06;30.20;25.80
68235;DHT22;55052;52.056;5.296;2023-06-14T14:24:33;30.10;26.00
68235;DHT22;55052;52.056;5.296;2023-06-14T14:27:00;30.00;26.10
68235;DHT22;55052;52.056;5.296;2023-06-14T14:29:27;29.90;26.20
68235;DHT22;55052;52.056;5.296;2023-06-14T14:31:56;29.70;26.20
68235;DHT22;55052;52.056;5.296;2023-06-14T14:34:24;29.60;26.50
68235;DHT22;55052;52.056;5.296;2023-06-14T14:36:51;29.50;26.90
68235;DHT22;55052;52.056;5.296;2023-06-14T14:39:18;29.30;26.70
68235;DHT22;55052;52.056;5.296;2023-06-14T14:41:46;29.20;26.80
68235;DHT22;55052;52.056;5.296;2023-06-14T14:44:14;29.10;26.90
68235;DHT22;55052;52.056;5.296;2023-06-14T14:46:40;29.10;27.10
68235;DHT22;55052;52.056;5.296;2023-06-14T14:49:08;28.90;26.80
68235;DHT22;55052;52.056;5.296;2023-06-14T14:51:34;28.80;26.70
68235;DHT22;55052;52.056;5.296;2023-06-14T14:54:01;28.70;26.70
68235;DHT22;55052;52.056;5.296;2023-06-14T14:56:28;28.70;26.70
68235;DHT22;55052;52.056;5.296;2023-06-14T14:58:55;28.60;26.70
68235;DHT22;55052;52.056;5.296;2023-06-14T15:01:22;28.50;26.70
68235;DHT22;55052;52.056;5.296;2023-06-14T15:03:49;28.50;26.60
68235;DHT22;55052;52.056;5.296;2023-06-14T15:06:25;28.40;26.70
68235;DHT22;55052;52.056;5.296;2023-06-14T15:08:52;28.40;26.80
68235;DHT22;55052;52.056;5.296;2023-06-14T15:11:19;28.30;26.80
68235;DHT22;55052;52.056;5.296;2023-06-14T15:13:47;28.30;26.90
68235;DHT22;55052;52.056;5.296;2023-06-14T15:16:14;28.10;26.90
68235;DHT22;55052;52.056;5.296;2023-06-14T15:18:41;28.10;26.90
68235;DHT22;55052;52.056;5.296;2023-06-14T15:21:07;28.10;27.10
68235;DHT22;55052;52.056;5.296;2023-06-14T15:23:34;28.10;27.30
68235;DHT22;55052;52.056;5.296;2023-06-14T15:26:01;28.00;28.10
68235;DHT22;55052;52.056;5.296;2023-06-14T15:28:28;28.00;27.30
68235;DHT22;55052;52.056;5.296;2023-06-14T15:30:55;28.00;27.40
68235;DHT22;55052;52.056;5.296;2023-06-14T15:33:23;28.00;27.50
68235;DHT22;55052;52.056;5.296;2023-06-14T15:35:50;28.00;27.50
68235;DHT22;55052;52.056;5.296;2023-06-14T15:38:17;27.90;27.40
68235;DHT22;55052;52.056;5.296;2023-06-14T15:40:44;27.90;27.40
68235;DHT22;55052;52.056;5.296;2023-06-14T15:43:12;27.90;27.30
68235;DHT22;55052;52.056;5.296;2023-06-14T15:45:39;27.90;27.30
68235;DHT22;55052;52.056;5.296;2023-06-14T15:48:06;27.90;27.40
68235;DHT22;55052;52.056;5.296;2023-06-14T15:50:33;27.90;27.40